createdAt,value
2018-12-10T00:00:01.795Z,99843.37
2018-12-10T00:02:57.530Z,99848.83
2018-12-10T00:05:49.483Z,99849.90
2018-12-10T00:08:39.314Z,99850.14
2018-12-10T00:11:30.015Z,99836.81
2018-12-10T00:14:19.822Z,99841.63
2018-12-10T00:17:10.015Z,99826.60
2018-12-10T00:19:59.782Z,99825.89
2018-12-10T00:22:49.946Z,99824.90
2018-12-10T00:25:40.471Z,99817.41
2018-12-10T00:28:30.342Z,99833.14
2018-12-10T00:31:20.241Z,99822.60
2018-12-10T00:34:10.459Z,99832.52
2018-12-10T00:37:01.234Z,99809.01
2018-12-10T00:39:51.214Z,99814.11
2018-12-10T00:42:40.965Z,99809.63
2018-12-10T00:45:30.977Z,99795.57
2018-12-10T00:48:21.198Z,99783.06
2018-12-10T00:51:11.099Z,99805.52
2018-12-10T00:54:01.034Z,99810.44
2018-12-10T00:56:50.980Z,99807.30
2018-12-10T00:59:40.767Z,99794.84
2018-12-10T01:02:30.597Z,99796.17
2018-12-10T01:05:21.251Z,99794.62
2018-12-10T01:08:12.012Z,99794.12
2018-12-10T01:11:01.929Z,99788.66
2018-12-10T01:13:51.909Z,99784.92
2018-12-10T01:16:41.843Z,99777.41
2018-12-10T01:19:32.558Z,99764.15
2018-12-10T01:22:22.515Z,99760.14
2018-12-10T01:25:12.468Z,99777.75
2018-12-10T01:28:02.258Z,99770.44
2018-12-10T01:30:52.243Z,99769.05
2018-12-10T01:33:43.098Z,99761.62
2018-12-10T01:36:33.054Z,99759.44
2018-12-10T01:39:23.042Z,99754.34
2018-12-10T01:42:13.018Z,99750.41
2018-12-10T01:45:03.854Z,99744.92
2018-12-10T01:47:54.028Z,99736.06
2018-12-10T01:50:44.834Z,99735.91
2018-12-10T01:53:35.699Z,99727.09
2018-12-10T01:56:26.437Z,99730.41
2018-12-10T01:59:16.446Z,99725.39
2018-12-10T02:02:06.032Z,99709.30
2018-12-10T02:04:56.186Z,99690.73
2018-12-10T02:07:46.893Z,99686.94
2018-12-10T02:10:36.716Z,99684.27
2018-12-10T02:13:26.686Z,99691.67
2018-12-10T02:16:16.706Z,99679.91
2018-12-10T02:19:07.305Z,99670.02
2018-12-10T02:21:57.339Z,99672.08
2018-12-10T02:24:47.845Z,99671.81
2018-12-10T02:27:37.650Z,99674.34
2018-12-10T02:30:27.575Z,99667.29
2018-12-10T02:33:17.922Z,99671.98
2018-12-10T02:36:08.520Z,99674.05
2018-12-10T02:38:58.457Z,99672.70
2018-12-10T02:41:48.337Z,99672.36
2018-12-10T02:44:38.257Z,99671.03
2018-12-10T02:47:28.019Z,99672.09
2018-12-10T02:50:18.042Z,99663.97
2018-12-10T02:53:07.891Z,99674.05
2018-12-10T02:55:57.669Z,99681.34
2018-12-10T02:58:48.620Z,99689.84
2018-12-10T03:01:38.585Z,99677.09
2018-12-10T03:04:28.684Z,99675.14
2018-12-10T03:07:19.007Z,99663.19
2018-12-10T03:10:09.634Z,99654.82
2018-12-10T03:13:00.737Z,99661.50
2018-12-10T03:15:50.871Z,99663.94
2018-12-10T03:18:40.579Z,99660.44
2018-12-10T03:21:30.620Z,99661.37
2018-12-10T03:24:20.652Z,99660.23
2018-12-10T03:27:11.291Z,99655.75
2018-12-10T03:30:01.384Z,99652.22
2018-12-10T03:32:52.484Z,99646.08
2018-12-10T03:35:42.541Z,99626.38
2018-12-10T03:38:32.435Z,99627.98
2018-12-10T03:41:22.562Z,99636.86
2018-12-10T03:44:13.224Z,99629.59
2018-12-10T03:47:04.139Z,99614.73
2018-12-10T03:49:54.203Z,99608.20
2018-12-10T03:52:44.202Z,99591.06
2018-12-10T03:55:34.951Z,99585.30
2018-12-10T03:58:24.732Z,99594.50
2018-12-10T04:01:14.623Z,99589.17
2018-12-10T04:04:04.828Z,99594.77
2018-12-10T04:06:55.633Z,99597.74
2018-12-10T04:09:46.815Z,99603.63
2018-12-10T04:12:37.555Z,99594.59
2018-12-10T04:15:27.750Z,99592.39
2018-12-10T04:18:18.423Z,99593.83
2018-12-10T04:21:08.359Z,99599.98
2018-12-10T04:23:59.055Z,99604.25
2018-12-10T04:26:48.845Z,99607.03
2018-12-10T04:29:38.801Z,99604.73
2018-12-10T04:32:29.519Z,99602.14
2018-12-10T04:35:19.242Z,99591.11
2018-12-10T04:38:09.185Z,99592.34
2018-12-10T04:41:00.129Z,99603.72
2018-12-10T04:43:49.937Z,99612.22
2018-12-10T04:46:39.791Z,99608.04
2018-12-10T04:49:29.770Z,99610.78
2018-12-10T04:52:20.540Z,99605.37
2018-12-10T04:55:11.694Z,99611.91
2018-12-10T04:58:01.663Z,99608.56
2018-12-10T05:00:51.721Z,99604.24
2018-12-10T05:03:41.322Z,99611.67
2018-12-10T05:06:31.378Z,99615.52
2018-12-10T05:09:21.083Z,99615.38
2018-12-10T05:12:11.050Z,99616.44
2018-12-10T05:15:01.098Z,99616.95
2018-12-10T05:17:51.063Z,99617.02
2018-12-10T05:20:41.088Z,99615.65
2018-12-10T05:23:30.928Z,99608.41
2018-12-10T05:26:20.923Z,99595.02
2018-12-10T05:29:10.833Z,99588.99
2018-12-10T05:32:01.593Z,99584.09
2018-12-10T05:34:51.656Z,99589.13
2018-12-10T05:37:41.443Z,99576.76
2018-12-10T05:40:31.599Z,99574.89
2018-12-10T05:43:21.558Z,99565.35
2018-12-10T05:46:11.347Z,99563.27
2018-12-10T05:49:02.041Z,99558.27
2018-12-10T05:51:51.937Z,99565.16
2018-12-10T05:54:42.412Z,99564.74
2018-12-10T05:57:32.238Z,99566.52
2018-12-10T06:00:22.158Z,99570.88
2018-12-10T06:03:12.223Z,99570.08
2018-12-10T06:06:02.274Z,99581.73
2018-12-10T06:08:52.258Z,99571.70
2018-12-10T06:11:43.050Z,99575.25
2018-12-10T06:14:33.909Z,99567.72
2018-12-10T06:17:23.575Z,99567.58
2018-12-10T06:20:13.602Z,99563.37
2018-12-10T06:23:03.633Z,99547.67
2018-12-10T06:25:53.808Z,99539.24
2018-12-10T06:28:44.574Z,99556.45
2018-12-10T06:31:34.650Z,99562.69
2018-12-10T06:34:24.693Z,99568.65
2018-12-10T06:37:15.691Z,99567.69
2018-12-10T06:40:06.289Z,99567.69
2018-12-10T06:42:56.792Z,99579.54
2018-12-10T06:45:46.622Z,99586.02
2018-12-10T06:48:36.715Z,99584.30
2018-12-10T06:51:27.498Z,99583.61
2018-12-10T06:54:17.381Z,99588.77
2018-12-10T06:57:08.143Z,99594.66
2018-12-10T06:59:58.109Z,99597.40
2018-12-10T07:02:48.897Z,99589.77
2018-12-10T07:05:38.778Z,99583.20
2018-12-10T07:08:28.623Z,99579.70
2018-12-10T07:11:18.504Z,99587.31
2018-12-10T07:14:08.555Z,99581.80
2018-12-10T07:16:58.702Z,99570.56
2018-12-10T07:19:49.303Z,99565.59
2018-12-10T07:22:39.347Z,99577.85
2018-12-10T07:25:30.446Z,99578.97
2018-12-10T07:28:22.281Z,99581.88
2018-12-10T07:31:13.015Z,99581.10
2018-12-10T07:34:03.217Z,99576.97
2018-12-10T07:36:53.194Z,99578.09
2018-12-10T07:39:44.007Z,99576.07
2018-12-10T07:42:33.873Z,99584.89
2018-12-10T07:45:24.114Z,99586.53
2018-12-10T07:48:14.013Z,99586.23
2018-12-10T07:51:03.849Z,99592.97
2018-12-10T07:53:53.552Z,99583.08
2018-12-10T07:56:43.522Z,99580.41
2018-12-10T07:59:33.380Z,99582.14
2018-12-10T08:02:23.400Z,99584.22
2018-12-10T08:05:14.134Z,99581.78
2018-12-10T08:08:04.101Z,99583.72
2018-12-10T08:10:53.884Z,99587.44
2018-12-10T08:13:43.883Z,99586.80
2018-12-10T08:16:34.483Z,99588.55
2018-12-10T08:19:24.629Z,99587.30
2018-12-10T08:22:14.645Z,99586.22
2018-12-10T08:25:04.672Z,99586.55
2018-12-10T08:27:54.696Z,99591.44
2018-12-10T08:30:45.109Z,99587.55
2018-12-10T08:33:35.703Z,99585.95
2018-12-10T08:36:25.949Z,99578.23
2018-12-10T08:39:15.851Z,99586.09
2018-12-10T08:42:05.888Z,99574.81
2018-12-10T08:44:55.866Z,99570.64
2018-12-10T08:47:46.602Z,99567.41
2018-12-10T08:50:36.632Z,99565.08
2018-12-10T08:53:26.836Z,99561.66
2018-12-10T08:56:16.671Z,99561.94
2018-12-10T08:59:06.567Z,99562.58
2018-12-10T09:01:56.378Z,99562.62
2018-12-10T09:04:46.244Z,99548.92
2018-12-10T09:07:37.128Z,99552.30
2018-12-10T09:10:27.988Z,99546.77
2018-12-10T09:13:17.962Z,99544.37
2018-12-10T09:16:08.478Z,99538.70
2018-12-10T09:18:58.721Z,99535.16
2018-12-10T09:21:48.675Z,99530.97
2018-12-10T09:24:38.478Z,99521.98
2018-12-10T09:27:28.377Z,99512.12
2018-12-10T09:30:18.486Z,99512.34
2018-12-10T09:33:08.553Z,99507.33
2018-12-10T09:35:59.245Z,99505.34
2018-12-10T09:38:49.073Z,99508.11
2018-12-10T09:41:39.874Z,99508.40
2018-12-10T09:44:30.078Z,99493.08
2018-12-10T09:47:20.641Z,99498.44
2018-12-10T09:50:11.201Z,99495.39
2018-12-10T09:53:01.022Z,99486.39
2018-12-10T09:55:50.935Z,99487.75
2018-12-10T09:58:40.872Z,99474.76
2018-12-10T10:01:30.743Z,99480.04
2018-12-10T10:04:20.543Z,99480.69
2018-12-10T10:07:10.550Z,99476.27
2018-12-10T10:10:00.448Z,99477.56
2018-12-10T10:12:50.911Z,99467.80
2018-12-10T10:15:41.331Z,99469.09
2018-12-10T10:18:32.149Z,99472.34
2018-12-10T10:21:21.890Z,99462.25
2018-12-10T10:24:11.976Z,99458.67
2018-12-10T10:27:02.560Z,99454.72
2018-12-10T10:29:52.784Z,99457.56
2018-12-10T10:32:43.446Z,99452.94
2018-12-10T10:35:33.202Z,99451.25
2018-12-10T10:38:23.098Z,99444.44
2018-12-10T10:41:13.013Z,99435.47
2018-12-10T10:44:03.050Z,99447.90
2018-12-10T10:46:53.732Z,99442.31
2018-12-10T10:49:43.594Z,99444.15
2018-12-10T10:52:35.426Z,99444.84
2018-12-10T10:55:25.919Z,99444.30
2018-12-10T10:58:16.290Z,99437.32
2018-12-10T11:01:11.671Z,99441.25
2018-12-10T11:04:01.672Z,99429.98
2018-12-10T11:06:51.446Z,99428.69
2018-12-10T11:09:41.330Z,99428.79
2018-12-10T11:12:32.199Z,99426.90
2018-12-10T11:15:23.052Z,99428.17
2018-12-10T11:18:12.730Z,99425.86
2018-12-10T11:21:03.545Z,99435.72
2018-12-10T11:23:53.518Z,99455.56
2018-12-10T11:26:43.379Z,99459.50
2018-12-10T11:29:33.239Z,99475.34
2018-12-10T11:32:23.450Z,99468.91
2018-12-10T11:35:14.308Z,99461.94
2018-12-10T11:38:04.334Z,99468.08
2018-12-10T11:40:54.403Z,99478.96
2018-12-10T11:43:44.302Z,99478.66
2018-12-10T11:46:34.067Z,99481.36
2018-12-10T11:49:24.188Z,99492.48
2018-12-10T11:52:14.889Z,99493.91
2018-12-10T11:55:05.014Z,99491.32
2018-12-10T11:57:55.668Z,99501.90
2018-12-10T12:00:45.671Z,99494.53
2018-12-10T12:03:35.467Z,99497.87
2018-12-10T12:06:27.782Z,99506.74
2018-12-10T12:09:17.697Z,99510.00
2018-12-10T12:12:07.891Z,99505.55
2018-12-10T12:14:57.615Z,99513.18
2018-12-10T12:17:48.009Z,99521.72
2018-12-10T12:20:38.845Z,99515.02
2018-12-10T12:23:29.645Z,99513.73
2018-12-10T12:26:19.530Z,99517.47
2018-12-10T12:29:09.498Z,99519.39
2018-12-10T12:31:59.157Z,99520.40
2018-12-10T12:34:49.510Z,99525.73
2018-12-10T12:37:40.178Z,99523.06
2018-12-10T12:40:30.103Z,99523.31
2018-12-10T12:43:20.028Z,99529.31
2018-12-10T12:46:09.887Z,99522.76
2018-12-10T12:49:00.575Z,99515.63
2018-12-10T12:51:50.589Z,99518.52
2018-12-10T12:54:40.354Z,99513.17
2018-12-10T12:57:31.251Z,99517.61
2018-12-10T13:00:27.097Z,99522.02
2018-12-10T13:03:13.302Z,99517.16
2018-12-10T13:06:06.869Z,99532.98
2018-12-10T13:08:56.982Z,99520.92
2018-12-10T13:11:47.059Z,99537.70
2018-12-10T13:14:37.763Z,99534.22
2018-12-10T13:17:27.956Z,99524.91
2018-12-10T13:20:17.821Z,99540.82
2018-12-10T13:23:08.425Z,99549.64
2018-12-10T13:25:58.428Z,99557.42
2018-12-10T13:28:48.241Z,99554.36
2018-12-10T13:31:38.262Z,99549.16
2018-12-10T13:34:28.221Z,99546.50
2018-12-10T13:37:18.255Z,99551.36
2018-12-10T13:40:08.281Z,99546.63
2018-12-10T13:42:58.490Z,99549.05
2018-12-10T13:45:49.059Z,99551.49
2018-12-10T13:48:39.133Z,99555.76
2018-12-10T13:51:29.853Z,99574.80
2018-12-10T13:54:19.710Z,99568.48
2018-12-10T13:57:09.530Z,99573.81
2018-12-10T13:59:59.601Z,99573.42
2018-12-10T14:02:50.235Z,99595.34
2018-12-10T14:05:40.319Z,99588.59
2018-12-10T14:08:30.161Z,99593.93
2018-12-10T14:11:20.254Z,99595.98
2018-12-10T14:14:10.850Z,99610.27
2018-12-10T14:17:00.926Z,99606.91
2018-12-10T14:19:50.898Z,99608.70
2018-12-10T14:22:40.831Z,99604.20
2018-12-10T14:25:31.094Z,99626.01
2018-12-10T14:28:21.599Z,99621.28
2018-12-10T14:31:11.582Z,99633.52
2018-12-10T14:34:06.337Z,99641.29
2018-12-10T14:36:56.115Z,99651.44
2018-12-10T14:39:46.115Z,99647.69
2018-12-10T14:42:46.469Z,99652.98
2018-12-10T14:45:36.914Z,99663.03
2018-12-10T14:48:27.603Z,99672.52
2018-12-10T14:51:18.541Z,99684.61
2018-12-10T14:54:09.194Z,99686.29
2018-12-10T14:56:59.272Z,99690.42
2018-12-10T14:59:49.913Z,99698.05
2018-12-10T15:02:39.627Z,99694.19
2018-12-10T15:05:29.638Z,99706.41
2018-12-10T15:08:20.352Z,99685.45
2018-12-10T15:11:10.261Z,99697.33
2018-12-10T15:14:00.395Z,99707.50
2018-12-10T15:16:50.350Z,99718.30
2018-12-10T15:19:40.083Z,99740.16
2018-12-10T15:22:29.911Z,99739.89
2018-12-10T15:25:20.043Z,99744.10
2018-12-10T15:28:09.816Z,99733.13
2018-12-10T15:30:59.925Z,99759.23
2018-12-10T15:33:49.979Z,99751.12
2018-12-10T15:36:40.657Z,99765.28
2018-12-10T15:39:30.449Z,99771.00
2018-12-10T15:42:20.614Z,99782.15
2018-12-10T15:45:10.251Z,99784.25
2018-12-10T15:48:00.168Z,99774.16
2018-12-10T15:50:50.002Z,99791.72
2018-12-10T15:53:39.956Z,99802.13
2018-12-10T15:56:29.770Z,99778.82
2018-12-10T15:59:19.887Z,99818.31
2018-12-10T16:02:10.514Z,99816.02
2018-12-10T16:05:00.770Z,99835.78
2018-12-10T16:07:50.496Z,99831.64
2018-12-10T16:10:40.570Z,99842.20
2018-12-10T16:13:30.274Z,99845.02
2018-12-10T16:16:20.414Z,99849.37
2018-12-10T16:19:10.408Z,99857.84
2018-12-10T16:22:00.282Z,99862.06
2018-12-10T16:24:51.154Z,99866.65
2018-12-10T16:27:42.377Z,99866.53
2018-12-10T16:30:33.874Z,99890.28
2018-12-10T16:33:23.945Z,99889.61
2018-12-10T16:36:14.558Z,99891.14
2018-12-10T16:39:07.117Z,99905.06
2018-12-10T16:41:57.838Z,99903.34
2018-12-10T16:44:48.648Z,99901.80
2018-12-10T16:47:38.544Z,99916.16
2018-12-10T16:50:28.707Z,99912.19
2018-12-10T16:53:19.505Z,99925.05
2018-12-10T16:56:09.560Z,99919.56
2018-12-10T16:58:59.327Z,99943.30
2018-12-10T17:01:49.243Z,99935.78
2018-12-10T17:04:39.973Z,99953.84
2018-12-10T17:07:30.803Z,99951.53
2018-12-10T17:10:20.647Z,99948.63
2018-12-10T17:13:10.753Z,99952.19
2018-12-10T17:16:01.449Z,99959.68
2018-12-10T17:18:51.376Z,99970.02
2018-12-10T17:21:41.983Z,99969.01
2018-12-10T17:24:32.056Z,99965.52
2018-12-10T17:27:22.143Z,99965.67
2018-12-10T17:30:11.954Z,99968.38
2018-12-10T17:33:02.022Z,99970.19
2018-12-10T17:35:52.848Z,99974.85
2018-12-10T17:38:43.402Z,99977.01
2018-12-10T17:41:33.290Z,99973.78
2018-12-10T17:44:24.243Z,99979.98
2018-12-10T17:47:14.182Z,99995.34
2018-12-10T17:50:03.911Z,99983.23
2018-12-10T17:52:54.178Z,99978.95
2018-12-10T17:55:44.831Z,99990.20
2018-12-10T17:58:34.754Z,99989.95
2018-12-10T18:01:25.332Z,99987.41
2018-12-10T18:04:18.340Z,99986.13
2018-12-10T18:07:09.217Z,99988.98
2018-12-10T18:10:00.003Z,99987.47
2018-12-10T18:12:50.646Z,99992.03
2018-12-10T18:15:40.433Z,99999.80
2018-12-10T18:18:30.403Z,99996.55
2018-12-10T18:21:20.281Z,99995.57
2018-12-10T18:24:10.884Z,99992.39
2018-12-10T18:27:00.878Z,99997.13
2018-12-10T18:29:51.630Z,99997.94
2018-12-10T18:32:41.623Z,99996.20
2018-12-10T18:35:31.470Z,99996.09
2018-12-10T18:38:21.410Z,99989.30
2018-12-10T18:41:12.072Z,99996.91
2018-12-10T18:44:02.125Z,99988.91
2018-12-10T18:46:51.957Z,99990.70
2018-12-10T18:49:41.888Z,99993.32
2018-12-10T18:52:31.590Z,99998.76
2018-12-10T18:55:21.578Z,99992.41
2018-12-10T18:58:12.181Z,99987.31
2018-12-10T19:01:02.029Z,99996.23
2018-12-10T19:03:53.860Z,100004.05
2018-12-10T19:06:44.774Z,100007.11
2018-12-10T19:09:35.429Z,100005.14
2018-12-10T19:12:25.869Z,100010.94
2018-12-10T19:15:16.310Z,100007.16
2018-12-10T19:18:06.442Z,100017.92
2018-12-10T19:20:57.232Z,100007.58
2018-12-10T19:23:47.745Z,100005.14
2018-12-10T19:26:38.235Z,100014.52
2018-12-10T19:29:29.527Z,100015.04
2018-12-10T19:32:20.353Z,100012.07
2018-12-10T19:35:11.022Z,100020.06
2018-12-10T19:38:00.741Z,100023.80
2018-12-10T19:40:50.707Z,100030.75
2018-12-10T19:43:40.587Z,100031.77
2018-12-10T19:46:30.384Z,100032.52
2018-12-10T19:49:20.206Z,100039.86
2018-12-10T19:52:10.243Z,100046.77
2018-12-10T19:55:01.312Z,100050.09
2018-12-10T19:57:52.001Z,100042.39
2018-12-10T20:00:42.054Z,100046.45
2018-12-10T20:03:31.882Z,100044.95
2018-12-10T20:06:26.764Z,100036.43
2018-12-10T20:09:16.613Z,100048.26
2018-12-10T20:12:06.534Z,100043.36
2018-12-10T20:14:56.687Z,100046.60
2018-12-10T20:17:47.267Z,100052.39
2018-12-10T20:20:37.177Z,100041.75
2018-12-10T20:23:27.131Z,100052.28
2018-12-10T20:26:17.057Z,100053.04
2018-12-10T20:29:07.835Z,100067.06
2018-12-10T20:31:57.776Z,100071.77
2018-12-10T20:34:47.457Z,100074.89
2018-12-10T20:37:39.423Z,100080.03
2018-12-10T20:40:29.157Z,100087.76
2018-12-10T20:43:19.015Z,100089.34
2018-12-10T20:46:08.822Z,100090.78
2018-12-10T20:48:58.600Z,100088.44
2018-12-10T20:51:48.574Z,100088.98
2018-12-10T20:54:39.380Z,100093.11
2018-12-10T20:57:30.289Z,100090.70
2018-12-10T21:00:21.523Z,100084.16
2018-12-10T21:03:12.130Z,100088.00
2018-12-10T21:06:07.855Z,100096.59
2018-12-10T21:08:57.888Z,100090.16
2018-12-10T21:11:48.593Z,100087.28
2018-12-10T21:14:38.455Z,100093.50
2018-12-10T21:17:29.270Z,100090.73
2018-12-10T21:20:19.109Z,100091.53
2018-12-10T21:23:09.524Z,100097.25
2018-12-10T21:25:59.917Z,100103.89
2018-12-10T21:28:49.986Z,100110.25
2018-12-10T21:31:39.924Z,100117.47
2018-12-10T21:34:30.657Z,100124.22
2018-12-10T21:37:20.526Z,100125.77
2018-12-10T21:40:10.335Z,100120.25
2018-12-10T21:43:00.990Z,100133.52
2018-12-10T21:45:51.171Z,100120.18
2018-12-10T21:48:40.857Z,100127.48
2018-12-10T21:51:30.790Z,100129.64
2018-12-10T21:54:21.550Z,100141.14
2018-12-10T21:57:12.293Z,100142.00
2018-12-10T22:00:02.434Z,100145.33
2018-12-10T22:02:53.280Z,100134.25
2018-12-10T22:05:43.133Z,100127.60
2018-12-10T22:08:33.252Z,100132.43
2018-12-10T22:11:23.201Z,100120.47
2018-12-10T22:14:13.364Z,100121.81
2018-12-10T22:17:03.204Z,100128.19
2018-12-10T22:19:53.123Z,100137.03
2018-12-10T22:22:43.010Z,100145.56
2018-12-10T22:25:33.731Z,100149.16
2018-12-10T22:28:23.653Z,100148.68
2018-12-10T22:31:14.234Z,100149.72
2018-12-10T22:34:04.474Z,100154.09
2018-12-10T22:36:55.382Z,100167.39
2018-12-10T22:39:45.265Z,100163.49
2018-12-10T22:42:36.081Z,100163.97
2018-12-10T22:45:26.803Z,100163.20
2018-12-10T22:48:16.678Z,100167.09
2018-12-10T22:51:06.457Z,100172.41
2018-12-10T22:53:56.606Z,100160.35
2018-12-10T22:56:46.579Z,100171.38
2018-12-10T22:59:36.439Z,100162.14
2018-12-10T23:02:26.269Z,100175.53
2018-12-10T23:05:17.038Z,100177.98
2018-12-10T23:08:08.656Z,100182.64
2018-12-10T23:10:58.694Z,100179.32
2018-12-10T23:13:49.032Z,100178.19
2018-12-10T23:16:39.258Z,100192.80
2018-12-10T23:19:30.013Z,100194.52
2018-12-10T23:22:19.879Z,100209.80
2018-12-10T23:25:09.757Z,100201.83
2018-12-10T23:27:59.737Z,100205.78
2018-12-10T23:30:50.571Z,100198.50
2018-12-10T23:33:40.523Z,100193.36
2018-12-10T23:36:31.231Z,100198.11
2018-12-10T23:39:21.297Z,100190.90
2018-12-10T23:42:11.136Z,100188.80
2018-12-10T23:45:01.097Z,100180.27
2018-12-10T23:47:50.947Z,100175.72
2018-12-10T23:50:41.227Z,100173.63
2018-12-10T23:53:32.011Z,100178.00
2018-12-10T23:56:21.793Z,100182.64
2018-12-10T23:59:11.644Z,100180.56
